sensor_id;sensor_type;location;lat;lon;timestamp;P1;durP1;ratioP1;P2;durP2;ratioP2
68888;SDS011;55930;47.412;8.790;2023-10-08T00:02:13;6.67;;;3.67;;
68888;SDS011;55930;47.412;8.790;2023-10-08T00:05:42;8.32;;;3.90;;
68888;SDS011;55930;47.412;8.790;2023-10-08T00:09:02;8.60;;;3.53;;
68888;SDS011;55930;47.412;8.790;2023-10-08T00:12:26;7.50;;;3.95;;
68888;SDS011;55930;47.412;8.790;2023-10-08T00:15:49;8.15;;;3.30;;
68888;SDS011;55930;47.412;8.790;2023-10-08T00:19:12;8.45;;;3.85;;
68888;SDS011;55930;47.412;8.790;2023-10-08T00:22:34;8.38;;;4.15;;
68888;SDS011;55930;47.412;8.790;2023-10-08T00:25:56;7.78;;;4.13;;
68888;SDS011;55930;47.412;8.790;2023-10-08T00:29:18;7.35;;;3.67;;
68888;SDS011;55930;47.412;8.790;2023-10-08T00:32:41;7.35;;;3.70;;
68888;SDS011;55930;47.412;8.790;2023-10-08T00:36:02;7.23;;;4.10;;
68888;SDS011;55930;47.412;8.790;2023-10-08T00:39:37;5.82;;;3.38;;
68888;SDS011;55930;47.412;8.790;2023-10-08T00:43:00;7.80;;;3.67;;
68888;SDS011;55930;47.412;8.790;2023-10-08T00:46:24;7.30;;;4.47;;
68888;SDS011;55930;47.412;8.790;2023-10-08T00:49:45;10.63;;;4.05;;
68888;SDS011;55930;47.412;8.790;2023-10-08T00:53:06;7.30;;;4.33;;
68888;SDS011;55930;47.412;8.790;2023-10-08T00:56:37;7.45;;;4.32;;
68888;SDS011;55930;47.412;8.790;2023-10-08T01:00:06;7.53;;;3.72;;
68888;SDS011;55930;47.412;8.790;2023-10-08T01:03:35;8.68;;;4.00;;
68888;SDS011;55930;47.412;8.790;2023-10-08T01:07:04;8.70;;;3.90;;
68888;SDS011;55930;47.412;8.790;2023-10-08T01:10:37;8.48;;;4.60;;
68888;SDS011;55930;47.412;8.790;2023-10-08T01:14:07;8.45;;;3.65;;
68888;SDS011;55930;47.412;8.790;2023-10-08T01:17:27;7.68;;;4.07;;
68888;SDS011;55930;47.412;8.790;2023-10-08T01:20:54;6.60;;;3.80;;
68888;SDS011;55930;47.412;8.790;2023-10-08T01:24:16;6.93;;;3.60;;
68888;SDS011;55930;47.412;8.790;2023-10-08T01:27:37;8.50;;;3.50;;
68888;SDS011;55930;47.412;8.790;2023-10-08T01:30:58;9.70;;;3.93;;
68888;SDS011;55930;47.412;8.790;2023-10-08T01:34:23;8.45;;;3.65;;
68888;SDS011;55930;47.412;8.790;2023-10-08T01:37:55;10.95;;;3.85;;
68888;SDS011;55930;47.412;8.790;2023-10-08T01:41:20;9.40;;;3.50;;
68888;SDS011;55930;47.412;8.790;2023-10-08T01:44:49;9.27;;;3.85;;
68888;SDS011;55930;47.412;8.790;2023-10-08T01:48:15;11.93;;;5.18;;
68888;SDS011;55930;47.412;8.790;2023-10-08T01:51:48;9.73;;;3.72;;
68888;SDS011;55930;47.412;8.790;2023-10-08T01:58:34;8.32;;;3.30;;
68888;SDS011;55930;47.412;8.790;2023-10-08T02:01:55;8.83;;;4.97;;
68888;SDS011;55930;47.412;8.790;2023-10-08T02:05:17;8.45;;;3.95;;
68888;SDS011;55930;47.412;8.790;2023-10-08T02:08:40;11.13;;;4.22;;
68888;SDS011;55930;47.412;8.790;2023-10-08T02:12:08;5.63;;;3.25;;
68888;SDS011;55930;47.412;8.790;2023-10-08T02:15:28;7.17;;;3.70;;
68888;SDS011;55930;47.412;8.790;2023-10-08T02:18:49;5.03;;;2.95;;
68888;SDS011;55930;47.412;8.790;2023-10-08T02:22:11;7.55;;;3.97;;
68888;SDS011;55930;47.412;8.790;2023-10-08T02:25:32;8.20;;;4.20;;
68888;SDS011;55930;47.412;8.790;2023-10-08T02:28:55;6.72;;;3.42;;
68888;SDS011;55930;47.412;8.790;2023-10-08T02:32:17;8.80;;;3.70;;
68888;SDS011;55930;47.412;8.790;2023-10-08T02:35:38;10.27;;;4.07;;
68888;SDS011;55930;47.412;8.790;2023-10-08T02:38:59;9.65;;;3.65;;
68888;SDS011;55930;47.412;8.790;2023-10-08T02:42:26;9.40;;;3.85;;
68888;SDS011;55930;47.412;8.790;2023-10-08T02:45:46;9.40;;;3.70;;
68888;SDS011;55930;47.412;8.790;2023-10-08T02:49:09;7.28;;;3.35;;
68888;SDS011;55930;47.412;8.790;2023-10-08T02:52:31;7.40;;;3.50;;
68888;SDS011;55930;47.412;8.790;2023-10-08T02:55:54;8.93;;;4.03;;
68888;SDS011;55930;47.412;8.790;2023-10-08T02:59:14;11.07;;;4.18;;
68888;SDS011;55930;47.412;8.790;2023-10-08T03:02:35;10.13;;;3.55;;
68888;SDS011;55930;47.412;8.790;2023-10-08T03:05:59;7.18;;;3.50;;
68888;SDS011;55930;47.412;8.790;2023-10-08T03:09:20;9.53;;;4.20;;
68888;SDS011;55930;47.412;8.790;2023-10-08T03:12:45;8.40;;;3.78;;
68888;SDS011;55930;47.412;8.790;2023-10-08T03:16:11;10.18;;;3.70;;
68888;SDS011;55930;47.412;8.790;2023-10-08T03:19:34;8.70;;;4.07;;
68888;SDS011;55930;47.412;8.790;2023-10-08T03:22:56;9.07;;;3.83;;
68888;SDS011;55930;47.412;8.790;2023-10-08T03:26:19;8.20;;;3.88;;
68888;SDS011;55930;47.412;8.790;2023-10-08T03:29:51;8.63;;;4.13;;
68888;SDS011;55930;47.412;8.790;2023-10-08T03:33:18;11.63;;;4.38;;
68888;SDS011;55930;47.412;8.790;2023-10-08T03:36:44;9.63;;;4.40;;
68888;SDS011;55930;47.412;8.790;2023-10-08T03:40:06;10.43;;;3.83;;
68888;SDS011;55930;47.412;8.790;2023-10-08T03:43:45;8.93;;;4.07;;
68888;SDS011;55930;47.412;8.790;2023-10-08T03:47:26;9.48;;;4.10;;
68888;SDS011;55930;47.412;8.790;2023-10-08T03:50:46;9.77;;;4.03;;
68888;SDS011;55930;47.412;8.790;2023-10-08T03:54:16;11.18;;;4.72;;
68888;SDS011;55930;47.412;8.790;2023-10-08T03:57:39;12.30;;;4.53;;
68888;SDS011;55930;47.412;8.790;2023-10-08T04:01:01;10.15;;;4.05;;
68888;SDS011;55930;47.412;8.790;2023-10-08T04:04:29;8.88;;;3.70;;
68888;SDS011;55930;47.412;8.790;2023-10-08T04:08:09;9.85;;;3.63;;
68888;SDS011;55930;47.412;8.790;2023-10-08T04:11:58;13.05;;;4.78;;
68888;SDS011;55930;47.412;8.790;2023-10-08T04:15:30;9.13;;;4.00;;
68888;SDS011;55930;47.412;8.790;2023-10-08T04:18:51;10.05;;;4.20;;
68888;SDS011;55930;47.412;8.790;2023-10-08T04:22:15;13.45;;;4.47;;
68888;SDS011;55930;47.412;8.790;2023-10-08T04:25:38;10.07;;;3.70;;
68888;SDS011;55930;47.412;8.790;2023-10-08T04:28:58;10.90;;;4.13;;
68888;SDS011;55930;47.412;8.790;2023-10-08T04:32:22;14.10;;;4.40;;
68888;SDS011;55930;47.412;8.790;2023-10-08T04:35:45;10.00;;;4.13;;
68888;SDS011;55930;47.412;8.790;2023-10-08T04:39:08;11.98;;;3.88;;
68888;SDS011;55930;47.412;8.790;2023-10-08T04:42:35;11.18;;;4.50;;
68888;SDS011;55930;47.412;8.790;2023-10-08T04:46:00;12.30;;;4.93;;
68888;SDS011;55930;47.412;8.790;2023-10-08T04:49:26;10.65;;;3.88;;
68888;SDS011;55930;47.412;8.790;2023-10-08T04:52:46;12.23;;;4.60;;
68888;SDS011;55930;47.412;8.790;2023-10-08T04:56:18;10.57;;;4.18;;
68888;SDS011;55930;47.412;8.790;2023-10-08T04:59:38;15.97;;;4.90;;
68888;SDS011;55930;47.412;8.790;2023-10-08T05:02:59;12.87;;;3.83;;
68888;SDS011;55930;47.412;8.790;2023-10-08T05:06:31;14.10;;;4.93;;
68888;SDS011;55930;47.412;8.790;2023-10-08T05:09:55;13.68;;;4.50;;
68888;SDS011;55930;47.412;8.790;2023-10-08T05:13:27;12.25;;;4.47;;
68888;SDS011;55930;47.412;8.790;2023-10-08T05:16:55;11.82;;;4.38;;
68888;SDS011;55930;47.412;8.790;2023-10-08T05:20:42;12.23;;;3.83;;
68888;SDS011;55930;47.412;8.790;2023-10-08T05:24:08;13.32;;;3.58;;
68888;SDS011;55930;47.412;8.790;2023-10-08T05:27:28;12.57;;;4.73;;
68888;SDS011;55930;47.412;8.790;2023-10-08T05:31:16;14.80;;;4.30;;
68888;SDS011;55930;47.412;8.790;2023-10-08T05:34:36;13.03;;;4.27;;
68888;SDS011;55930;47.412;8.790;2023-10-08T05:38:02;14.00;;;4.70;;
68888;SDS011;55930;47.412;8.790;2023-10-08T05:41:34;13.02;;;4.47;;
68888;SDS011;55930;47.412;8.790;2023-10-08T05:45:11;17.40;;;5.20;;
68888;SDS011;55930;47.412;8.790;2023-10-08T05:48:32;13.13;;;4.47;;
68888;SDS011;55930;47.412;8.790;2023-10-08T05:51:58;16.75;;;4.72;;
68888;SDS011;55930;47.412;8.790;2023-10-08T05:55:24;15.68;;;4.68;;
68888;SDS011;55930;47.412;8.790;2023-10-08T05:58:45;12.30;;;4.15;;
68888;SDS011;55930;47.412;8.790;2023-10-08T06:02:20;21.63;;;4.60;;
68888;SDS011;55930;47.412;8.790;2023-10-08T06:05:52;14.55;;;4.47;;
68888;SDS011;55930;47.412;8.790;2023-10-08T06:09:27;14.57;;;3.45;;
68888;SDS011;55930;47.412;8.790;2023-10-08T06:13:01;11.18;;;4.32;;
68888;SDS011;55930;47.412;8.790;2023-10-08T06:16:52;14.35;;;4.05;;
68888;SDS011;55930;47.412;8.790;2023-10-08T06:20:34;15.52;;;4.80;;
68888;SDS011;55930;47.412;8.790;2023-10-08T06:23:55;13.20;;;3.72;;
68888;SDS011;55930;47.412;8.790;2023-10-08T06:30:37;16.13;;;4.55;;
68888;SDS011;55930;47.412;8.790;2023-10-08T06:34:00;14.52;;;4.55;;
68888;SDS011;55930;47.412;8.790;2023-10-08T06:37:23;13.30;;;4.30;;
68888;SDS011;55930;47.412;8.790;2023-10-08T06:40:44;14.40;;;4.30;;
68888;SDS011;55930;47.412;8.790;2023-10-08T06:44:04;14.80;;;4.93;;
68888;SDS011;55930;47.412;8.790;2023-10-08T06:47:34;16.45;;;4.07;;
68888;SDS011;55930;47.412;8.790;2023-10-08T06:50:55;13.70;;;3.80;;
68888;SDS011;55930;47.412;8.790;2023-10-08T06:54:18;20.75;;;4.97;;
68888;SDS011;55930;47.412;8.790;2023-10-08T06:57:39;12.95;;;3.90;;
68888;SDS011;55930;47.412;8.790;2023-10-08T07:01:00;19.47;;;4.57;;
68888;SDS011;55930;47.412;8.790;2023-10-08T07:04:27;12.65;;;4.30;;
68888;SDS011;55930;47.412;8.790;2023-10-08T07:07:47;13.23;;;5.15;;
68888;SDS011;55930;47.412;8.790;2023-10-08T07:11:07;19.80;;;4.80;;
68888;SDS011;55930;47.412;8.790;2023-10-08T07:14:31;13.18;;;4.85;;
68888;SDS011;55930;47.412;8.790;2023-10-08T07:17:53;13.10;;;4.13;;
68888;SDS011;55930;47.412;8.790;2023-10-08T07:21:14;14.75;;;3.88;;
68888;SDS011;55930;47.412;8.790;2023-10-08T07:24:35;14.77;;;4.50;;
68888;SDS011;55930;47.412;8.790;2023-10-08T07:27:55;14.93;;;4.33;;
68888;SDS011;55930;47.412;8.790;2023-10-08T07:31:18;14.73;;;4.03;;
68888;SDS011;55930;47.412;8.790;2023-10-08T07:34:43;11.20;;;4.03;;
68888;SDS011;55930;47.412;8.790;2023-10-08T07:41:29;12.63;;;4.20;;
68888;SDS011;55930;47.412;8.790;2023-10-08T07:48:14;14.07;;;4.95;;
68888;SDS011;55930;47.412;8.790;2023-10-08T07:51:35;15.68;;;5.10;;
68888;SDS011;55930;47.412;8.790;2023-10-08T07:54:57;14.15;;;4.18;;
68888;SDS011;55930;47.412;8.790;2023-10-08T07:58:18;20.33;;;5.18;;
68888;SDS011;55930;47.412;8.790;2023-10-08T08:01:38;14.05;;;4.60;;
68888;SDS011;55930;47.412;8.790;2023-10-08T08:05:01;16.15;;;4.78;;
68888;SDS011;55930;47.412;8.790;2023-10-08T08:08:23;13.13;;;4.65;;
68888;SDS011;55930;47.412;8.790;2023-10-08T08:11:47;14.13;;;4.28;;
68888;SDS011;55930;47.412;8.790;2023-10-08T08:15:08;13.98;;;4.55;;
68888;SDS011;55930;47.412;8.790;2023-10-08T08:18:37;16.27;;;4.72;;
68888;SDS011;55930;47.412;8.790;2023-10-08T08:21:58;11.32;;;4.45;;
68888;SDS011;55930;47.412;8.790;2023-10-08T08:25:22;18.00;;;4.65;;
68888;SDS011;55930;47.412;8.790;2023-10-08T08:28:54;13.18;;;4.90;;
68888;SDS011;55930;47.412;8.790;2023-10-08T08:32:19;14.48;;;4.00;;
68888;SDS011;55930;47.412;8.790;2023-10-08T08:35:41;17.02;;;5.25;;
68888;SDS011;55930;47.412;8.790;2023-10-08T08:39:02;15.70;;;5.43;;
68888;SDS011;55930;47.412;8.790;2023-10-08T08:42:25;14.90;;;5.15;;
68888;SDS011;55930;47.412;8.790;2023-10-08T08:45:49;15.25;;;4.70;;
68888;SDS011;55930;47.412;8.790;2023-10-08T08:49:09;16.48;;;4.78;;
68888;SDS011;55930;47.412;8.790;2023-10-08T08:52:31;13.38;;;4.85;;
68888;SDS011;55930;47.412;8.790;2023-10-08T08:55:53;15.88;;;5.00;;
68888;SDS011;55930;47.412;8.790;2023-10-08T08:59:15;11.57;;;4.25;;
68888;SDS011;55930;47.412;8.790;2023-10-08T09:02:38;16.33;;;4.97;;
68888;SDS011;55930;47.412;8.790;2023-10-08T09:05:59;13.52;;;4.70;;
68888;SDS011;55930;47.412;8.790;2023-10-08T09:09:19;10.88;;;4.90;;
68888;SDS011;55930;47.412;8.790;2023-10-08T09:12:42;13.45;;;4.28;;
68888;SDS011;55930;47.412;8.790;2023-10-08T09:16:11;11.55;;;4.72;;
68888;SDS011;55930;47.412;8.790;2023-10-08T09:19:38;12.82;;;4.35;;
68888;SDS011;55930;47.412;8.790;2023-10-08T09:23:05;14.65;;;5.25;;
68888;SDS011;55930;47.412;8.790;2023-10-08T09:26:31;15.43;;;5.22;;
68888;SDS011;55930;47.412;8.790;2023-10-08T09:29:52;18.92;;;5.22;;
68888;SDS011;55930;47.412;8.790;2023-10-08T09:33:15;13.20;;;4.35;;
68888;SDS011;55930;47.412;8.790;2023-10-08T09:36:37;12.57;;;4.68;;
68888;SDS011;55930;47.412;8.790;2023-10-08T09:40:03;18.40;;;5.28;;
68888;SDS011;55930;47.412;8.790;2023-10-08T09:43:29;17.75;;;5.00;;
68888;SDS011;55930;47.412;8.790;2023-10-08T09:46:53;13.45;;;4.47;;
68888;SDS011;55930;47.412;8.790;2023-10-08T09:50:29;12.48;;;4.82;;
68888;SDS011;55930;47.412;8.790;2023-10-08T09:53:55;18.48;;;4.90;;
68888;SDS011;55930;47.412;8.790;2023-10-08T09:57:25;14.15;;;5.30;;
68888;SDS011;55930;47.412;8.790;2023-10-08T10:00:46;10.98;;;4.68;;
68888;SDS011;55930;47.412;8.790;2023-10-08T10:04:09;11.18;;;5.25;;
68888;SDS011;55930;47.412;8.790;2023-10-08T10:07:30;15.80;;;4.93;;
68888;SDS011;55930;47.412;8.790;2023-10-08T10:10:57;12.20;;;4.68;;
68888;SDS011;55930;47.412;8.790;2023-10-08T10:14:21;12.55;;;5.10;;
68888;SDS011;55930;47.412;8.790;2023-10-08T10:17:42;9.80;;;4.40;;
68888;SDS011;55930;47.412;8.790;2023-10-08T10:24:35;12.93;;;4.22;;
68888;SDS011;55930;47.412;8.790;2023-10-08T10:31:24;10.75;;;4.53;;
68888;SDS011;55930;47.412;8.790;2023-10-08T10:34:47;13.93;;;5.53;;
68888;SDS011;55930;47.412;8.790;2023-10-08T10:38:11;12.00;;;4.93;;
68888;SDS011;55930;47.412;8.790;2023-10-08T10:41:33;12.25;;;5.03;;
68888;SDS011;55930;47.412;8.790;2023-10-08T10:44:54;11.95;;;4.43;;
68888;SDS011;55930;47.412;8.790;2023-10-08T10:48:16;11.68;;;4.65;;
68888;SDS011;55930;47.412;8.790;2023-10-08T10:51:39;11.98;;;5.22;;
68888;SDS011;55930;47.412;8.790;2023-10-08T10:55:04;13.05;;;5.20;;
68888;SDS011;55930;47.412;8.790;2023-10-08T10:58:37;11.48;;;3.72;;
68888;SDS011;55930;47.412;8.790;2023-10-08T11:02:00;11.05;;;4.63;;
68888;SDS011;55930;47.412;8.790;2023-10-08T11:05:39;11.05;;;5.20;;
68888;SDS011;55930;47.412;8.790;2023-10-08T11:09:08;10.45;;;4.53;;
68888;SDS011;55930;47.412;8.790;2023-10-08T11:12:34;12.77;;;5.13;;
68888;SDS011;55930;47.412;8.790;2023-10-08T11:16:07;15.07;;;4.75;;
68888;SDS011;55930;47.412;8.790;2023-10-08T11:19:33;10.38;;;4.05;;
68888;SDS011;55930;47.412;8.790;2023-10-08T11:22:53;12.27;;;4.97;;
68888;SDS011;55930;47.412;8.790;2023-10-08T11:26:14;9.93;;;4.60;;
68888;SDS011;55930;47.412;8.790;2023-10-08T11:29:36;12.43;;;5.15;;
68888;SDS011;55930;47.412;8.790;2023-10-08T11:32:58;10.52;;;4.18;;
68888;SDS011;55930;47.412;8.790;2023-10-08T11:36:20;11.20;;;4.47;;
68888;SDS011;55930;47.412;8.790;2023-10-08T11:39:53;9.93;;;4.05;;
68888;SDS011;55930;47.412;8.790;2023-10-08T11:43:18;13.82;;;5.18;;
68888;SDS011;55930;47.412;8.790;2023-10-08T11:46:38;9.90;;;4.40;;
68888;SDS011;55930;47.412;8.790;2023-10-08T11:49:58;10.63;;;4.20;;
68888;SDS011;55930;47.412;8.790;2023-10-08T11:53:31;12.75;;;4.70;;
68888;SDS011;55930;47.412;8.790;2023-10-08T11:56:56;9.43;;;4.65;;
68888;SDS011;55930;47.412;8.790;2023-10-08T12:00:17;13.00;;;4.32;;
68888;SDS011;55930;47.412;8.790;2023-10-08T12:03:40;10.10;;;4.40;;
68888;SDS011;55930;47.412;8.790;2023-10-08T12:07:01;13.05;;;4.93;;
68888;SDS011;55930;47.412;8.790;2023-10-08T12:10:27;10.75;;;4.85;;
68888;SDS011;55930;47.412;8.790;2023-10-08T12:13:53;11.90;;;4.75;;
68888;SDS011;55930;47.412;8.790;2023-10-08T12:17:15;16.52;;;4.80;;
68888;SDS011;55930;47.412;8.790;2023-10-08T12:20:38;18.70;;;4.63;;
68888;SDS011;55930;47.412;8.790;2023-10-08T12:24:00;14.18;;;4.47;;
68888;SDS011;55930;47.412;8.790;2023-10-08T12:27:25;13.45;;;4.15;;
68888;SDS011;55930;47.412;8.790;2023-10-08T12:30:45;14.43;;;4.95;;
68888;SDS011;55930;47.412;8.790;2023-10-08T12:34:06;14.35;;;4.63;;
68888;SDS011;55930;47.412;8.790;2023-10-08T12:37:26;10.85;;;4.90;;
68888;SDS011;55930;47.412;8.790;2023-10-08T12:40:50;10.55;;;4.45;;
68888;SDS011;55930;47.412;8.790;2023-10-08T12:44:14;15.30;;;5.20;;
68888;SDS011;55930;47.412;8.790;2023-10-08T12:47:35;16.92;;;5.43;;
68888;SDS011;55930;47.412;8.790;2023-10-08T12:50:56;13.75;;;5.20;;
68888;SDS011;55930;47.412;8.790;2023-10-08T12:54:16;17.48;;;5.03;;
68888;SDS011;55930;47.412;8.790;2023-10-08T12:57:42;10.32;;;4.57;;
68888;SDS011;55930;47.412;8.790;2023-10-08T13:01:05;19.20;;;6.20;;
68888;SDS011;55930;47.412;8.790;2023-10-08T13:04:27;18.75;;;5.45;;
68888;SDS011;55930;47.412;8.790;2023-10-08T13:07:48;14.93;;;4.68;;
68888;SDS011;55930;47.412;8.790;2023-10-08T13:11:08;13.27;;;5.07;;
68888;SDS011;55930;47.412;8.790;2023-10-08T13:14:28;13.80;;;5.55;;
68888;SDS011;55930;47.412;8.790;2023-10-08T13:17:49;16.08;;;6.45;;
68888;SDS011;55930;47.412;8.790;2023-10-08T13:21:10;21.75;;;5.93;;
68888;SDS011;55930;47.412;8.790;2023-10-08T13:24:30;18.48;;;5.60;;
68888;SDS011;55930;47.412;8.790;2023-10-08T13:27:51;14.45;;;5.00;;
68888;SDS011;55930;47.412;8.790;2023-10-08T13:31:11;21.77;;;6.30;;
68888;SDS011;55930;47.412;8.790;2023-10-08T13:34:32;15.02;;;6.10;;
68888;SDS011;55930;47.412;8.790;2023-10-08T13:37:52;25.55;;;6.00;;
68888;SDS011;55930;47.412;8.790;2023-10-08T13:41:16;16.90;;;5.78;;
68888;SDS011;55930;47.412;8.790;2023-10-08T13:44:36;20.92;;;7.53;;
68888;SDS011;55930;47.412;8.790;2023-10-08T13:47:57;17.33;;;6.28;;
68888;SDS011;55930;47.412;8.790;2023-10-08T13:51:21;19.60;;;6.80;;
68888;SDS011;55930;47.412;8.790;2023-10-08T13:54:48;19.98;;;6.72;;
68888;SDS011;55930;47.412;8.790;2023-10-08T13:58:11;20.33;;;6.55;;
68888;SDS011;55930;47.412;8.790;2023-10-08T14:01:33;24.63;;;6.50;;
68888;SDS011;55930;47.412;8.790;2023-10-08T14:04:54;20.45;;;6.07;;
68888;SDS011;55930;47.412;8.790;2023-10-08T14:08:15;19.13;;;6.25;;
68888;SDS011;55930;47.412;8.790;2023-10-08T14:11:38;22.92;;;7.18;;
68888;SDS011;55930;47.412;8.790;2023-10-08T14:14:58;15.90;;;5.70;;
68888;SDS011;55930;47.412;8.790;2023-10-08T14:18:19;18.10;;;6.38;;
68888;SDS011;55930;47.412;8.790;2023-10-08T14:21:46;25.80;;;7.97;;
68888;SDS011;55930;47.412;8.790;2023-10-08T14:25:14;17.10;;;6.15;;
68888;SDS011;55930;47.412;8.790;2023-10-08T14:28:37;23.30;;;6.80;;
68888;SDS011;55930;47.412;8.790;2023-10-08T14:32:00;18.35;;;6.22;;
68888;SDS011;55930;47.412;8.790;2023-10-08T14:35:21;20.35;;;6.45;;
68888;SDS011;55930;47.412;8.790;2023-10-08T14:39:00;21.23;;;6.43;;
68888;SDS011;55930;47.412;8.790;2023-10-08T14:42:39;19.65;;;6.90;;
68888;SDS011;55930;47.412;8.790;2023-10-08T14:46:18;16.88;;;5.88;;
68888;SDS011;55930;47.412;8.790;2023-10-08T14:49:40;22.40;;;6.75;;
68888;SDS011;55930;47.412;8.790;2023-10-08T14:53:02;17.98;;;5.47;;
68888;SDS011;55930;47.412;8.790;2023-10-08T14:56:25;14.48;;;5.28;;
68888;SDS011;55930;47.412;8.790;2023-10-08T14:59:48;17.30;;;5.50;;
68888;SDS011;55930;47.412;8.790;2023-10-08T15:03:09;22.23;;;5.95;;
68888;SDS011;55930;47.412;8.790;2023-10-08T15:06:32;20.17;;;6.25;;
68888;SDS011;55930;47.412;8.790;2023-10-08T15:09:53;14.02;;;5.88;;
68888;SDS011;55930;47.412;8.790;2023-10-08T15:13:17;23.17;;;6.45;;
68888;SDS011;55930;47.412;8.790;2023-10-08T15:16:38;16.23;;;5.50;;
68888;SDS011;55930;47.412;8.790;2023-10-08T15:19:59;19.67;;;5.88;;
68888;SDS011;55930;47.412;8.790;2023-10-08T15:23:20;21.80;;;7.47;;
68888;SDS011;55930;47.412;8.790;2023-10-08T15:26:45;18.00;;;6.28;;
68888;SDS011;55930;47.412;8.790;2023-10-08T15:30:08;20.73;;;6.18;;
68888;SDS011;55930;47.412;8.790;2023-10-08T15:33:32;18.75;;;5.65;;
68888;SDS011;55930;47.412;8.790;2023-10-08T15:36:53;20.58;;;5.53;;
68888;SDS011;55930;47.412;8.790;2023-10-08T15:40:13;17.55;;;5.88;;
68888;SDS011;55930;47.412;8.790;2023-10-08T15:43:40;16.58;;;6.50;;
68888;SDS011;55930;47.412;8.790;2023-10-08T15:47:01;19.45;;;5.50;;
68888;SDS011;55930;47.412;8.790;2023-10-08T15:50:24;16.58;;;5.20;;
68888;SDS011;55930;47.412;8.790;2023-10-08T15:53:44;16.38;;;4.85;;
68888;SDS011;55930;47.412;8.790;2023-10-08T15:57:05;15.57;;;5.03;;
68888;SDS011;55930;47.412;8.790;2023-10-08T16:00:26;17.00;;;5.55;;
68888;SDS011;55930;47.412;8.790;2023-10-08T16:03:47;17.50;;;5.43;;
68888;SDS011;55930;47.412;8.790;2023-10-08T16:07:08;14.95;;;5.43;;
68888;SDS011;55930;47.412;8.790;2023-10-08T16:10:31;14.15;;;5.18;;
68888;SDS011;55930;47.412;8.790;2023-10-08T16:13:51;17.95;;;5.85;;
68888;SDS011;55930;47.412;8.790;2023-10-08T16:17:12;15.68;;;5.15;;
68888;SDS011;55930;47.412;8.790;2023-10-08T16:20:35;15.73;;;5.40;;
68888;SDS011;55930;47.412;8.790;2023-10-08T16:23:55;19.38;;;6.18;;
68888;SDS011;55930;47.412;8.790;2023-10-08T16:27:18;13.93;;;4.80;;
68888;SDS011;55930;47.412;8.790;2023-10-08T16:30:39;13.98;;;4.47;;
68888;SDS011;55930;47.412;8.790;2023-10-08T16:33:59;16.40;;;5.15;;
68888;SDS011;55930;47.412;8.790;2023-10-08T16:37:20;14.25;;;4.88;;
68888;SDS011;55930;47.412;8.790;2023-10-08T16:40:41;15.82;;;5.63;;
68888;SDS011;55930;47.412;8.790;2023-10-08T16:44:02;13.90;;;5.00;;
68888;SDS011;55930;47.412;8.790;2023-10-08T16:47:22;13.90;;;5.47;;
68888;SDS011;55930;47.412;8.790;2023-10-08T16:50:42;21.65;;;6.35;;
68888;SDS011;55930;47.412;8.790;2023-10-08T16:54:06;14.40;;;5.47;;
68888;SDS011;55930;47.412;8.790;2023-10-08T16:57:34;14.13;;;5.78;;
68888;SDS011;55930;47.412;8.790;2023-10-08T17:00:54;15.95;;;5.40;;
68888;SDS011;55930;47.412;8.790;2023-10-08T17:04:14;18.98;;;5.97;;
68888;SDS011;55930;47.412;8.790;2023-10-08T17:07:35;17.48;;;5.45;;
68888;SDS011;55930;47.412;8.790;2023-10-08T17:10:55;15.57;;;5.15;;
68888;SDS011;55930;47.412;8.790;2023-10-08T17:14:16;19.13;;;5.82;;
68888;SDS011;55930;47.412;8.790;2023-10-08T17:17:38;14.25;;;4.93;;
68888;SDS011;55930;47.412;8.790;2023-10-08T17:20:58;16.30;;;5.20;;
68888;SDS011;55930;47.412;8.790;2023-10-08T17:24:19;16.13;;;4.93;;
68888;SDS011;55930;47.412;8.790;2023-10-08T17:27:39;15.32;;;5.25;;
68888;SDS011;55930;47.412;8.790;2023-10-08T17:31:06;15.15;;;5.03;;
68888;SDS011;55930;47.412;8.790;2023-10-08T17:34:27;18.00;;;5.63;;
68888;SDS011;55930;47.412;8.790;2023-10-08T17:37:47;13.27;;;4.55;;
68888;SDS011;55930;47.412;8.790;2023-10-08T17:41:08;12.15;;;4.45;;
68888;SDS011;55930;47.412;8.790;2023-10-08T17:44:29;14.50;;;4.57;;
68888;SDS011;55930;47.412;8.790;2023-10-08T17:47:50;17.58;;;5.43;;
68888;SDS011;55930;47.412;8.790;2023-10-08T17:51:12;15.85;;;4.88;;
68888;SDS011;55930;47.412;8.790;2023-10-08T17:54:35;16.58;;;5.20;;
68888;SDS011;55930;47.412;8.790;2023-10-08T17:58:02;17.33;;;5.35;;
68888;SDS011;55930;47.412;8.790;2023-10-08T18:01:23;19.60;;;4.57;;
68888;SDS011;55930;47.412;8.790;2023-10-08T18:04:43;16.58;;;5.60;;
68888;SDS011;55930;47.412;8.790;2023-10-08T18:08:04;18.98;;;5.93;;
68888;SDS011;55930;47.412;8.790;2023-10-08T18:11:26;16.80;;;5.43;;
68888;SDS011;55930;47.412;8.790;2023-10-08T18:14:51;14.95;;;4.78;;
68888;SDS011;55930;47.412;8.790;2023-10-08T18:18:11;15.57;;;4.68;;
68888;SDS011;55930;47.412;8.790;2023-10-08T18:21:33;16.10;;;4.70;;
68888;SDS011;55930;47.412;8.790;2023-10-08T18:24:57;14.90;;;4.97;;
68888;SDS011;55930;47.412;8.790;2023-10-08T18:28:20;12.73;;;4.45;;
68888;SDS011;55930;47.412;8.790;2023-10-08T18:35:02;16.80;;;6.73;;
68888;SDS011;55930;47.412;8.790;2023-10-08T18:38:22;18.98;;;6.65;;
68888;SDS011;55930;47.412;8.790;2023-10-08T18:45:06;14.50;;;4.63;;
68888;SDS011;55930;47.412;8.790;2023-10-08T18:48:30;14.88;;;4.35;;
68888;SDS011;55930;47.412;8.790;2023-10-08T18:51:51;15.57;;;5.35;;
68888;SDS011;55930;47.412;8.790;2023-10-08T18:58:39;15.50;;;4.25;;
68888;SDS011;55930;47.412;8.790;2023-10-08T19:02:00;14.77;;;4.20;;
68888;SDS011;55930;47.412;8.790;2023-10-08T19:08:40;14.50;;;4.33;;
68888;SDS011;55930;47.412;8.790;2023-10-08T19:15:25;14.98;;;4.57;;
68888;SDS011;55930;47.412;8.790;2023-10-08T19:18:50;20.85;;;5.03;;
68888;SDS011;55930;47.412;8.790;2023-10-08T19:22:10;18.15;;;5.15;;
68888;SDS011;55930;47.412;8.790;2023-10-08T19:28:52;18.73;;;5.35;;
68888;SDS011;55930;47.412;8.790;2023-10-08T19:32:14;13.50;;;4.97;;
68888;SDS011;55930;47.412;8.790;2023-10-08T19:38:55;17.10;;;5.07;;
68888;SDS011;55930;47.412;8.790;2023-10-08T19:45:36;16.67;;;5.15;;
68888;SDS011;55930;47.412;8.790;2023-10-08T19:48:57;16.35;;;4.82;;
68888;SDS011;55930;47.412;8.790;2023-10-08T19:52:18;15.90;;;4.57;;
68888;SDS011;55930;47.412;8.790;2023-10-08T19:59:09;15.95;;;4.80;;
68888;SDS011;55930;47.412;8.790;2023-10-08T20:02:31;20.27;;;5.07;;
68888;SDS011;55930;47.412;8.790;2023-10-08T20:05:52;18.33;;;4.30;;
68888;SDS011;55930;47.412;8.790;2023-10-08T20:09:15;18.98;;;4.85;;
68888;SDS011;55930;47.412;8.790;2023-10-08T20:12:39;16.05;;;4.10;;
68888;SDS011;55930;47.412;8.790;2023-10-08T20:16:01;19.30;;;5.20;;
68888;SDS011;55930;47.412;8.790;2023-10-08T20:19:25;20.17;;;6.97;;
68888;SDS011;55930;47.412;8.790;2023-10-08T20:22:51;16.83;;;4.22;;
68888;SDS011;55930;47.412;8.790;2023-10-08T20:26:13;13.55;;;3.95;;
68888;SDS011;55930;47.412;8.790;2023-10-08T20:29:35;19.00;;;5.15;;
68888;SDS011;55930;47.412;8.790;2023-10-08T20:32:58;17.75;;;4.38;;
68888;SDS011;55930;47.412;8.790;2023-10-08T20:36:19;16.50;;;4.97;;
68888;SDS011;55930;47.412;8.790;2023-10-08T20:39:39;15.32;;;4.60;;
68888;SDS011;55930;47.412;8.790;2023-10-08T20:43:01;15.82;;;4.50;;
68888;SDS011;55930;47.412;8.790;2023-10-08T20:46:22;18.42;;;5.28;;
68888;SDS011;55930;47.412;8.790;2023-10-08T20:49:42;18.33;;;4.15;;
68888;SDS011;55930;47.412;8.790;2023-10-08T20:53:03;15.00;;;4.40;;
68888;SDS011;55930;47.412;8.790;2023-10-08T20:56:25;20.65;;;4.68;;
68888;SDS011;55930;47.412;8.790;2023-10-08T20:59:45;18.80;;;4.43;;
68888;SDS011;55930;47.412;8.790;2023-10-08T21:03:06;22.73;;;4.57;;